createdAt,value
2017-10-19T00:00:20.297Z,68.00
2017-10-19T00:02:47.601Z,65.73
2017-10-19T00:05:15.812Z,67.67
2017-10-19T00:07:43.165Z,57.77
2017-10-19T00:10:10.476Z,64.13
2017-10-19T00:12:40.393Z,68.07
2017-10-19T00:15:07.726Z,60.53
2017-10-19T00:17:35.054Z,76.90
2017-10-19T00:20:02.380Z,57.53
2017-10-19T00:22:33.523Z,57.07
2017-10-19T00:25:00.826Z,60.67
2017-10-19T00:27:28.149Z,61.80
2017-10-19T00:29:55.454Z,60.90
2017-10-19T00:32:22.788Z,65.83
2017-10-19T00:34:50.100Z,63.83
2017-10-19T00:37:17.429Z,68.93
2017-10-19T00:39:44.737Z,77.77
2017-10-19T00:42:12.088Z,67.60
2017-10-19T00:44:39.413Z,79.47
2017-10-19T00:47:06.738Z,66.27
2017-10-19T00:49:34.069Z,72.37
2017-10-19T00:52:01.372Z,68.97
2017-10-19T00:54:28.709Z,64.10
2017-10-19T00:56:56.017Z,65.40
2017-10-19T00:59:25.050Z,65.43
2017-10-19T01:01:52.384Z,55.50
2017-10-19T01:04:19.726Z,69.07
2017-10-19T01:06:48.649Z,56.90
2017-10-19T01:09:16.025Z,61.77
2017-10-19T01:11:43.345Z,72.97
2017-10-19T01:14:10.677Z,64.97
2017-10-19T01:16:38.001Z,65.93
2017-10-19T01:19:05.332Z,68.10
2017-10-19T01:21:32.946Z,60.50
2017-10-19T01:24:00.269Z,61.43
2017-10-19T01:26:27.614Z,62.30
2017-10-19T01:28:54.954Z,60.97
2017-10-19T01:31:22.277Z,56.37
2017-10-19T01:33:49.601Z,64.30
2017-10-19T01:36:16.926Z,74.27
2017-10-19T01:38:45.218Z,69.17
2017-10-19T01:41:12.546Z,58.63
2017-10-19T01:43:39.881Z,81.97
2017-10-19T01:46:08.309Z,64.27
2017-10-19T01:48:35.642Z,64.90
2017-10-19T01:51:03.029Z,66.33
2017-10-19T01:53:30.333Z,64.17
2017-10-19T01:55:58.439Z,61.03
2017-10-19T01:58:25.745Z,60.40
2017-10-19T02:00:53.070Z,60.53
2017-10-19T02:03:20.410Z,60.40
2017-10-19T02:05:48.166Z,63.67
2017-10-19T02:08:15.533Z,69.43
2017-10-19T02:10:42.845Z,79.43
2017-10-19T02:13:10.830Z,57.70
2017-10-19T02:15:38.155Z,75.57
2017-10-19T02:18:05.491Z,70.43
2017-10-19T02:20:32.789Z,67.20
2017-10-19T02:23:00.118Z,61.23
2017-10-19T02:25:27.616Z,60.33
2017-10-19T02:27:54.997Z,65.67
2017-10-19T02:30:22.305Z,63.63
2017-10-19T02:32:49.644Z,66.57
2017-10-19T02:35:17.001Z,79.47
2017-10-19T02:37:44.317Z,70.40
2017-10-19T02:40:11.645Z,66.53
2017-10-19T02:42:40.236Z,80.20
2017-10-19T02:45:07.556Z,75.20
2017-10-19T02:47:34.856Z,64.10
2017-10-19T02:50:02.172Z,76.90
2017-10-19T02:52:29.518Z,69.20
2017-10-19T02:54:56.849Z,67.50
2017-10-19T02:57:24.242Z,67.07
2017-10-19T02:59:51.586Z,74.67
2017-10-19T03:02:18.901Z,69.87
2017-10-19T03:04:46.217Z,68.70
2017-10-19T03:07:13.545Z,71.50
2017-10-19T03:09:40.893Z,67.50
2017-10-19T03:12:08.210Z,75.57
2017-10-19T03:14:35.522Z,68.13
2017-10-19T03:17:02.845Z,70.90
2017-10-19T03:19:30.143Z,69.97
2017-10-19T03:21:57.469Z,66.57
2017-10-19T03:24:24.792Z,67.70
2017-10-19T03:26:52.201Z,73.43
2017-10-19T03:29:19.521Z,72.17
2017-10-19T03:31:46.856Z,67.27
2017-10-19T03:34:14.170Z,56.43
2017-10-19T03:36:41.497Z,60.53
2017-10-19T03:39:08.797Z,61.67
2017-10-19T03:41:36.148Z,64.13
2017-10-19T03:44:03.460Z,64.90
2017-10-19T03:46:31.655Z,74.50
2017-10-19T03:48:59.014Z,68.90
2017-10-19T03:51:26.314Z,73.50
2017-10-19T03:53:53.648Z,81.13
2017-10-19T03:56:20.953Z,69.70
2017-10-19T03:58:48.280Z,62.73
2017-10-19T04:01:15.581Z,71.13
2017-10-19T04:03:42.934Z,66.83
2017-10-19T04:06:10.249Z,74.93
2017-10-19T04:08:37.582Z,67.50
2017-10-19T04:11:04.925Z,76.30
2017-10-19T04:13:32.261Z,68.00
2017-10-19T04:15:59.559Z,68.37
2017-10-19T04:18:26.900Z,64.80
2017-10-19T04:20:54.205Z,60.80
2017-10-19T04:23:21.825Z,64.83
2017-10-19T04:25:49.149Z,60.70
2017-10-19T04:28:16.449Z,56.67
2017-10-19T04:30:43.778Z,66.60
2017-10-19T04:33:11.449Z,48.57
2017-10-19T04:35:38.777Z,61.80
2017-10-19T04:38:06.091Z,62.03
2017-10-19T04:40:33.412Z,55.20
2017-10-19T04:43:00.729Z,74.40
2017-10-19T04:45:28.054Z,60.20
2017-10-19T04:47:56.313Z,55.07
2017-10-19T04:50:23.810Z,68.83
2017-10-19T04:52:51.114Z,57.87
2017-10-19T04:55:18.465Z,63.40
2017-10-19T04:57:45.784Z,63.73
2017-10-19T05:00:13.106Z,71.17
2017-10-19T05:02:40.588Z,73.80
2017-10-19T05:05:07.900Z,70.53
2017-10-19T05:07:35.251Z,70.67
2017-10-19T05:10:02.556Z,64.77
2017-10-19T05:12:30.870Z,71.03
2017-10-19T05:14:58.185Z,68.23
2017-10-19T05:17:25.501Z,63.10
2017-10-19T05:19:52.806Z,74.87
2017-10-19T05:22:20.136Z,57.23
2017-10-19T05:24:47.739Z,64.03
2017-10-19T05:27:15.072Z,55.70
2017-10-19T05:29:42.408Z,56.43
2017-10-19T05:32:09.835Z,61.90
2017-10-19T05:34:37.136Z,55.83
2017-10-19T05:37:04.441Z,61.57
2017-10-19T05:39:31.761Z,54.40
2017-10-19T05:41:59.072Z,54.20
2017-10-19T05:44:26.391Z,48.30
2017-10-19T05:46:53.714Z,48.87
2017-10-19T05:49:21.046Z,55.83
2017-10-19T05:51:49.518Z,47.13
2017-10-19T05:54:17.573Z,54.80
2017-10-19T05:56:44.882Z,48.30
2017-10-19T05:59:12.213Z,51.97
2017-10-19T06:01:39.513Z,56.27
2017-10-19T06:04:06.841Z,51.27
2017-10-19T06:06:34.165Z,49.00
2017-10-19T06:09:01.506Z,50.20
2017-10-19T06:11:28.805Z,50.57
2017-10-19T06:13:56.113Z,46.13
2017-10-19T06:16:23.445Z,47.40
2017-10-19T06:18:51.020Z,48.40
2017-10-19T06:21:18.392Z,49.80
2017-10-19T06:23:45.688Z,49.73
2017-10-19T06:26:13.020Z,45.07
2017-10-19T06:28:40.338Z,46.93
2017-10-19T06:31:08.389Z,46.63
2017-10-19T06:33:35.735Z,49.60
2017-10-19T06:36:03.074Z,60.20
2017-10-19T06:38:30.408Z,53.00
2017-10-19T06:40:57.772Z,47.27
2017-10-19T06:43:25.111Z,61.23
2017-10-19T06:45:52.453Z,58.10
2017-10-19T06:48:19.796Z,70.30
2017-10-19T06:50:47.100Z,58.87
2017-10-19T06:53:14.437Z,63.67
2017-10-19T06:55:41.737Z,63.70
2017-10-19T06:58:09.056Z,81.53
2017-10-19T07:00:36.377Z,75.60
2017-10-19T07:03:04.302Z,81.50
2017-10-19T07:05:31.636Z,88.93
2017-10-19T07:07:58.965Z,99.63
2017-10-19T07:10:26.290Z,76.43
2017-10-19T07:12:53.602Z,79.33
2017-10-19T07:15:20.909Z,91.30
2017-10-19T07:17:48.242Z,80.13
2017-10-19T07:20:15.542Z,78.60
2017-10-19T07:22:42.885Z,88.33
2017-10-19T07:25:10.194Z,80.20
2017-10-19T07:27:37.503Z,87.83
2017-10-19T07:30:04.886Z,78.40
2017-10-19T07:32:32.203Z,78.03
2017-10-19T07:34:59.529Z,80.07
2017-10-19T07:37:26.829Z,68.10
2017-10-19T07:39:54.171Z,77.53
2017-10-19T07:42:21.492Z,66.17
2017-10-19T07:44:48.856Z,63.40
2017-10-19T07:47:16.193Z,65.77
2017-10-19T07:49:43.520Z,66.43
2017-10-19T07:52:11.725Z,70.80
2017-10-19T07:54:39.050Z,66.90
2017-10-19T07:57:06.390Z,67.97
2017-10-19T07:59:33.786Z,88.20
2017-10-19T08:02:01.109Z,70.90
2017-10-19T08:04:28.416Z,62.00
2017-10-19T08:06:55.740Z,72.10
2017-10-19T08:09:23.053Z,77.00
2017-10-19T08:11:50.373Z,76.30
2017-10-19T08:14:17.975Z,72.10
2017-10-19T08:16:45.298Z,72.40
2017-10-19T08:19:12.609Z,67.07
2017-10-19T08:21:39.938Z,66.90
2017-10-19T08:24:07.253Z,70.17
2017-10-19T08:26:34.573Z,68.90
2017-10-19T08:29:01.897Z,68.03
2017-10-19T08:31:29.240Z,67.90
2017-10-19T08:33:56.551Z,72.90
2017-10-19T08:36:23.906Z,70.73
2017-10-19T08:38:51.213Z,70.63
2017-10-19T08:41:18.542Z,69.30
2017-10-19T08:43:45.853Z,71.33
2017-10-19T08:46:13.172Z,66.47
2017-10-19T08:48:40.506Z,62.73
2017-10-19T08:51:07.805Z,74.80
2017-10-19T08:53:35.141Z,68.47
2017-10-19T08:56:02.460Z,64.17
2017-10-19T08:58:29.781Z,63.23
2017-10-19T09:00:57.092Z,61.63
2017-10-19T09:03:24.413Z,67.67
2017-10-19T09:05:51.717Z,66.30
2017-10-19T09:08:19.065Z,63.57
2017-10-19T09:10:46.378Z,65.50
2017-10-19T09:13:13.731Z,67.53
2017-10-19T09:15:41.065Z,68.37
2017-10-19T09:18:08.378Z,63.80
2017-10-19T09:20:35.945Z,71.53
2017-10-19T09:23:03.277Z,68.50
2017-10-19T09:25:30.644Z,66.43
2017-10-19T09:27:57.974Z,66.47
2017-10-19T09:30:25.329Z,63.20
2017-10-19T09:32:52.705Z,62.37
2017-10-19T09:35:20.085Z,65.53
2017-10-19T09:37:48.396Z,70.93
2017-10-19T09:40:15.849Z,67.87
2017-10-19T09:42:43.154Z,65.80
2017-10-19T09:45:10.469Z,64.53
2017-10-19T09:47:37.931Z,67.13
2017-10-19T09:50:05.261Z,66.00
2017-10-19T09:52:32.577Z,63.67
2017-10-19T09:54:59.884Z,68.33
2017-10-19T09:57:27.240Z,70.87
2017-10-19T09:59:54.563Z,68.13
2017-10-19T10:02:21.887Z,73.73
2017-10-19T10:04:49.237Z,71.37
2017-10-19T10:07:16.729Z,71.60
2017-10-19T10:09:44.041Z,66.80
2017-10-19T10:12:11.353Z,76.50
2017-10-19T10:14:38.685Z,68.13
2017-10-19T10:17:06.018Z,80.70
2017-10-19T10:19:33.609Z,76.87
2017-10-19T10:22:00.962Z,74.60
2017-10-19T10:24:28.260Z,69.80
2017-10-19T10:26:55.570Z,67.00
2017-10-19T10:29:22.909Z,75.73
2017-10-19T10:31:50.219Z,65.80
2017-10-19T10:34:17.540Z,73.70
2017-10-19T10:36:44.846Z,70.23
2017-10-19T10:39:12.180Z,73.07
2017-10-19T10:41:39.490Z,73.73
2017-10-19T10:44:06.827Z,66.27
2017-10-19T10:46:34.135Z,69.93
2017-10-19T10:49:01.461Z,69.40
2017-10-19T10:51:29.552Z,65.17
2017-10-19T10:53:56.910Z,70.60
2017-10-19T10:56:24.231Z,70.00
2017-10-19T10:58:51.570Z,64.43
2017-10-19T11:01:18.918Z,67.23
2017-10-19T11:03:46.297Z,68.87
2017-10-19T11:06:13.644Z,67.80
2017-10-19T11:08:40.960Z,71.03
2017-10-19T11:11:08.301Z,75.10
2017-10-19T11:13:35.681Z,74.93
2017-10-19T11:16:03.033Z,72.50
2017-10-19T11:18:30.352Z,72.20
2017-10-19T11:20:57.711Z,69.67
2017-10-19T11:23:25.018Z,68.13
2017-10-19T11:25:52.346Z,69.40
2017-10-19T11:28:19.661Z,69.30
2017-10-19T11:30:46.990Z,74.77
2017-10-19T11:33:14.314Z,69.67
2017-10-19T11:35:41.796Z,71.57
2017-10-19T11:38:09.101Z,70.40
2017-10-19T11:40:36.425Z,70.00
2017-10-19T11:43:03.890Z,69.70
2017-10-19T11:45:31.203Z,70.43
2017-10-19T11:47:58.535Z,73.77
2017-10-19T11:50:25.850Z,76.90
2017-10-19T11:52:53.186Z,83.30
2017-10-19T11:55:20.545Z,78.03
2017-10-19T11:57:48.332Z,83.47
2017-10-19T12:00:15.689Z,77.73
2017-10-19T12:02:43.009Z,86.27
2017-10-19T12:05:10.331Z,87.63
2017-10-19T12:07:37.669Z,81.70
2017-10-19T12:10:07.593Z,81.10
2017-10-19T12:12:35.101Z,83.47
2017-10-19T12:15:02.456Z,96.87
2017-10-19T12:17:29.789Z,76.47
2017-10-19T12:19:57.097Z,80.37
2017-10-19T12:22:24.432Z,81.00
2017-10-19T12:24:51.745Z,82.30
2017-10-19T12:27:19.045Z,88.77
2017-10-19T12:29:46.373Z,86.70
2017-10-19T12:32:13.734Z,84.57
2017-10-19T12:34:41.081Z,84.00
2017-10-19T12:37:09.313Z,82.53
2017-10-19T12:39:36.695Z,88.47
2017-10-19T12:42:04.073Z,82.40
2017-10-19T12:44:31.773Z,81.70
2017-10-19T12:46:59.092Z,98.00
2017-10-19T12:49:26.469Z,80.93
2017-10-19T12:51:53.824Z,70.13
2017-10-19T12:54:21.160Z,73.93
2017-10-19T12:56:48.448Z,79.80
2017-10-19T12:59:15.774Z,83.03
2017-10-19T13:01:43.086Z,78.00
2017-10-19T13:04:10.394Z,77.90
2017-10-19T13:06:37.728Z,80.97
2017-10-19T13:09:05.038Z,85.50
2017-10-19T13:11:32.370Z,86.90
2017-10-19T13:13:59.688Z,83.00
2017-10-19T13:16:27.022Z,84.30
2017-10-19T13:18:54.340Z,76.27
2017-10-19T13:21:21.665Z,80.73
2017-10-19T13:23:49.300Z,81.13
2017-10-19T13:26:16.621Z,82.90
2017-10-19T13:28:43.936Z,82.57
2017-10-19T13:31:11.542Z,85.70
2017-10-19T13:33:38.932Z,83.83
2017-10-19T13:36:06.293Z,91.00
2017-10-19T13:38:33.605Z,84.83
2017-10-19T13:41:01.853Z,84.77
2017-10-19T13:43:29.528Z,90.60
2017-10-19T13:45:56.881Z,90.03
2017-10-19T13:48:24.228Z,89.20
2017-10-19T13:50:51.533Z,85.20
2017-10-19T13:53:18.881Z,87.57
2017-10-19T13:55:47.185Z,80.47
2017-10-19T13:58:14.543Z,76.70
2017-10-19T14:00:41.851Z,73.40
2017-10-19T14:03:09.193Z,80.60
2017-10-19T14:05:36.534Z,77.23
2017-10-19T14:08:03.849Z,77.43
2017-10-19T14:10:31.160Z,72.50
2017-10-19T14:12:58.477Z,78.97
2017-10-19T14:15:25.835Z,75.60
2017-10-19T14:17:53.168Z,78.07
2017-10-19T14:20:20.547Z,80.33
2017-10-19T14:22:48.340Z,88.30
2017-10-19T14:25:15.665Z,83.33
2017-10-19T14:27:42.965Z,83.67
2017-10-19T14:30:10.641Z,80.67
2017-10-19T14:32:37.957Z,82.67
2017-10-19T14:35:05.309Z,83.70
2017-10-19T14:37:32.641Z,73.73
2017-10-19T14:39:59.957Z,79.87
2017-10-19T14:42:27.292Z,76.10
2017-10-19T14:44:54.601Z,77.30
2017-10-19T14:47:21.931Z,78.80
2017-10-19T14:49:49.224Z,75.37
2017-10-19T14:52:16.560Z,75.03
2017-10-19T14:54:43.873Z,82.00
2017-10-19T14:57:11.196Z,75.47
2017-10-19T14:59:38.501Z,75.53
2017-10-19T15:02:05.842Z,79.50
2017-10-19T15:04:33.223Z,82.00
2017-10-19T15:07:00.572Z,80.10
2017-10-19T15:09:27.881Z,84.27
2017-10-19T15:11:55.237Z,76.50
2017-10-19T15:14:22.572Z,81.87
2017-10-19T15:16:49.943Z,88.67
2017-10-19T15:19:17.278Z,88.70
2017-10-19T15:21:44.596Z,78.67
2017-10-19T15:24:11.993Z,83.17
2017-10-19T15:26:39.319Z,87.23
2017-10-19T15:29:06.645Z,92.17
2017-10-19T15:31:33.954Z,85.63
2017-10-19T15:34:01.305Z,86.97
2017-10-19T15:36:28.627Z,98.17
2017-10-19T15:38:56.014Z,99.13
2017-10-19T15:41:23.437Z,100.13
2017-10-19T15:43:50.751Z,105.03
2017-10-19T15:46:18.090Z,109.63
2017-10-19T15:48:46.384Z,141.00
2017-10-19T15:51:13.780Z,100.27
2017-10-19T15:53:41.149Z,111.50
2017-10-19T15:56:08.548Z,117.57
2017-10-19T15:58:35.856Z,123.33
2017-10-19T16:01:03.191Z,122.07
2017-10-19T16:03:30.489Z,121.17
2017-10-19T16:05:57.816Z,116.53
2017-10-19T16:08:25.147Z,129.47
2017-10-19T16:10:52.517Z,137.80
2017-10-19T16:13:19.862Z,152.23
2017-10-19T16:15:47.185Z,150.00
2017-10-19T16:18:14.513Z,170.10
2017-10-19T16:20:41.872Z,199.60
2017-10-19T16:23:09.189Z,254.57
2017-10-19T16:25:36.550Z,218.23
2017-10-19T16:28:03.894Z,192.77
2017-10-19T16:30:31.200Z,198.13
2017-10-19T16:32:58.548Z,184.30
2017-10-19T16:35:25.874Z,207.00
2017-10-19T16:37:53.291Z,208.10
2017-10-19T16:40:20.625Z,250.60
2017-10-19T16:42:47.962Z,224.67
2017-10-19T16:45:16.205Z,226.63
2017-10-19T16:47:43.557Z,246.30
2017-10-19T16:50:10.867Z,241.33
2017-10-19T16:52:38.523Z,429.67
2017-10-19T16:55:05.870Z,460.80
2017-10-19T16:57:33.233Z,388.33
2017-10-19T17:00:00.565Z,278.70
2017-10-19T17:02:28.089Z,242.80
2017-10-19T17:04:55.420Z,237.43
2017-10-19T17:07:22.719Z,207.60
2017-10-19T17:09:50.088Z,220.87
2017-10-19T17:12:17.396Z,210.10
2017-10-19T17:14:44.733Z,203.30
2017-10-19T17:17:12.078Z,253.97
2017-10-19T17:19:39.449Z,215.53
2017-10-19T17:22:06.754Z,194.40
2017-10-19T17:24:34.081Z,214.60
2017-10-19T17:27:01.388Z,197.07
2017-10-19T17:29:28.745Z,211.40
2017-10-19T17:31:56.089Z,193.90
2017-10-19T17:34:23.421Z,170.87
2017-10-19T17:36:50.729Z,179.03
2017-10-19T17:39:18.205Z,176.27
2017-10-19T17:41:45.535Z,180.73
2017-10-19T17:44:12.850Z,175.27
2017-10-19T17:46:40.180Z,190.10
2017-10-19T17:49:07.490Z,178.10
2017-10-19T17:51:34.812Z,190.80
2017-10-19T17:54:02.152Z,196.60
2017-10-19T17:56:29.802Z,182.93
2017-10-19T17:58:57.112Z,171.73
2017-10-19T18:01:24.453Z,182.77
2017-10-19T18:03:51.789Z,184.33
2017-10-19T18:06:19.126Z,178.53
2017-10-19T18:08:46.440Z,182.87
2017-10-19T18:11:13.751Z,168.13
2017-10-19T18:13:41.127Z,185.03
2017-10-19T18:16:08.432Z,187.27
2017-10-19T18:18:35.781Z,183.47
2017-10-19T18:21:03.119Z,178.87
2017-10-19T18:23:30.448Z,181.63
2017-10-19T18:25:57.761Z,177.10
2017-10-19T18:28:25.112Z,166.20
2017-10-19T18:30:52.446Z,184.53
2017-10-19T18:33:19.764Z,165.40
2017-10-19T18:35:47.077Z,186.90
2017-10-19T18:38:14.406Z,180.97
2017-10-19T18:40:41.725Z,183.97
2017-10-19T18:43:09.128Z,189.57
2017-10-19T18:45:36.461Z,185.10
2017-10-19T18:48:03.797Z,190.57
2017-10-19T18:50:31.105Z,186.50
2017-10-19T18:52:59.278Z,183.90
2017-10-19T18:55:26.616Z,169.97
2017-10-19T18:57:53.925Z,170.77
2017-10-19T19:00:21.253Z,178.73
2017-10-19T19:02:48.899Z,166.43
2017-10-19T19:05:16.252Z,175.77
2017-10-19T19:07:43.564Z,173.13
2017-10-19T19:10:10.990Z,169.47
2017-10-19T19:12:38.305Z,161.17
2017-10-19T19:15:05.635Z,169.67
2017-10-19T19:17:32.981Z,160.67
2017-10-19T19:20:00.316Z,166.27
2017-10-19T19:22:27.642Z,160.10
2017-10-19T19:24:55.025Z,151.67
2017-10-19T19:27:22.390Z,167.13
2017-10-19T19:29:49.805Z,168.67
2017-10-19T19:32:17.144Z,175.67
2017-10-19T19:34:44.517Z,166.37
2017-10-19T19:37:11.873Z,183.07
2017-10-19T19:39:39.208Z,168.03
2017-10-19T19:42:06.531Z,168.93
2017-10-19T19:44:34.046Z,163.77
2017-10-19T19:47:01.394Z,171.67
2017-10-19T19:49:28.688Z,190.33
2017-10-19T19:51:56.022Z,192.07
2017-10-19T19:54:23.626Z,199.80
2017-10-19T19:56:50.954Z,175.83
2017-10-19T19:59:18.265Z,185.87
2017-10-19T20:01:45.576Z,174.50
2017-10-19T20:04:12.928Z,182.30
2017-10-19T20:06:40.270Z,165.27
2017-10-19T20:09:07.653Z,156.20
2017-10-19T20:11:34.974Z,170.60
2017-10-19T20:14:02.309Z,177.33
2017-10-19T20:16:30.051Z,178.10
2017-10-19T20:18:57.385Z,183.73
2017-10-19T20:21:24.705Z,181.40
2017-10-19T20:23:52.031Z,188.03
2017-10-19T20:26:19.367Z,188.87
2017-10-19T20:28:46.725Z,190.27
2017-10-19T20:31:14.489Z,174.87
2017-10-19T20:33:43.742Z,168.77
2017-10-19T20:36:11.081Z,176.00
2017-10-19T20:38:38.525Z,169.87
2017-10-19T20:41:05.951Z,158.53
2017-10-19T20:43:33.287Z,173.23
2017-10-19T20:46:00.622Z,164.93
2017-10-19T20:48:27.982Z,167.00
2017-10-19T20:50:55.322Z,172.53
2017-10-19T20:53:22.670Z,184.33
2017-10-19T20:55:49.995Z,170.53
2017-10-19T20:58:17.316Z,167.10
2017-10-19T21:00:44.665Z,166.70
2017-10-19T21:03:11.986Z,163.43
2017-10-19T21:05:39.430Z,171.33
2017-10-19T21:08:06.778Z,157.90
2017-10-19T21:10:34.143Z,170.10
2017-10-19T21:13:01.478Z,173.27
2017-10-19T21:15:28.773Z,162.90
2017-10-19T21:17:56.101Z,170.87
2017-10-19T21:20:23.414Z,177.80
2017-10-19T21:22:51.002Z,191.07
2017-10-19T21:25:18.354Z,198.17
2017-10-19T21:27:45.678Z,183.87
2017-10-19T21:30:12.990Z,176.90
2017-10-19T21:32:40.313Z,187.77
2017-10-19T21:35:07.960Z,188.33
2017-10-19T21:37:35.343Z,170.50
2017-10-19T21:40:03.477Z,174.13
2017-10-19T21:42:30.809Z,173.47
2017-10-19T21:44:58.125Z,198.37
2017-10-19T21:47:25.466Z,187.43
2017-10-19T21:49:52.793Z,193.87
2017-10-19T21:52:20.169Z,204.50
2017-10-19T21:54:47.497Z,207.77
2017-10-19T21:57:14.806Z,185.77
2017-10-19T21:59:42.187Z,185.97
2017-10-19T22:02:09.810Z,187.43
2017-10-19T22:04:37.143Z,194.50
2017-10-19T22:07:04.492Z,170.40
2017-10-19T22:09:31.828Z,201.33
2017-10-19T22:11:59.995Z,208.67
2017-10-19T22:14:27.343Z,195.63
2017-10-19T22:16:54.656Z,207.83
2017-10-19T22:19:22.352Z,211.73
2017-10-19T22:21:49.993Z,168.80
2017-10-19T22:24:17.352Z,183.10
2017-10-19T22:26:44.669Z,191.07
2017-10-19T22:29:12.005Z,187.57
2017-10-19T22:31:40.456Z,190.93
2017-10-19T22:34:07.765Z,193.27
2017-10-19T22:36:35.243Z,199.70
2017-10-19T22:39:02.577Z,194.17
2017-10-19T22:41:30.225Z,190.07
2017-10-19T22:43:57.550Z,211.03
2017-10-19T22:46:24.880Z,212.57
2017-10-19T22:48:52.196Z,231.90
2017-10-19T22:51:19.516Z,215.67
2017-10-19T22:53:46.815Z,213.33
2017-10-19T22:56:14.162Z,190.53
2017-10-19T22:58:41.475Z,181.80
2017-10-19T23:01:08.841Z,192.50
2017-10-19T23:03:36.146Z,171.10
2017-10-19T23:06:03.476Z,174.90
2017-10-19T23:08:30.853Z,170.13
2017-10-19T23:10:58.170Z,163.20
2017-10-19T23:13:25.502Z,147.90
2017-10-19T23:15:52.801Z,151.93
2017-10-19T23:18:20.127Z,152.40
2017-10-19T23:20:47.550Z,150.07
2017-10-19T23:23:14.868Z,153.47
2017-10-19T23:25:42.217Z,160.63
2017-10-19T23:28:09.549Z,162.60
2017-10-19T23:30:37.166Z,149.90
2017-10-19T23:33:04.505Z,171.33
2017-10-19T23:35:31.807Z,161.70
2017-10-19T23:37:59.128Z,161.60
2017-10-19T23:40:26.437Z,150.70
2017-10-19T23:42:53.842Z,150.67
2017-10-19T23:45:21.200Z,147.30
2017-10-19T23:47:48.507Z,139.70
2017-10-19T23:50:15.834Z,149.33
2017-10-19T23:52:43.145Z,146.33
2017-10-19T23:55:10.470Z,159.23
2017-10-19T23:57:37.925Z,143.83
